sensor_id;sensor_type;location;lat;lon;timestamp;P1;durP1;ratioP1;P2;durP2;ratioP2
19231;SDS011;9750;48.730;10.294;2023-04-08T00:00:31;11.97;;;10.60;;
19231;SDS011;9750;48.730;10.294;2023-04-08T00:02:58;12.70;;;11.40;;
19231;SDS011;9750;48.730;10.294;2023-04-08T00:05:26;16.03;;;12.97;;
19231;SDS011;9750;48.730;10.294;2023-04-08T00:07:54;17.10;;;14.53;;
19231;SDS011;9750;48.730;10.294;2023-04-08T00:10:23;15.60;;;13.30;;
19231;SDS011;9750;48.730;10.294;2023-04-08T00:12:50;16.30;;;14.33;;
19231;SDS011;9750;48.730;10.294;2023-04-08T00:15:18;13.27;;;11.87;;
19231;SDS011;9750;48.730;10.294;2023-04-08T00:17:45;18.33;;;15.60;;
19231;SDS011;9750;48.730;10.294;2023-04-08T00:20:12;14.47;;;13.07;;
19231;SDS011;9750;48.730;10.294;2023-04-08T00:22:39;18.23;;;15.00;;
19231;SDS011;9750;48.730;10.294;2023-04-08T00:25:07;19.00;;;13.80;;
19231;SDS011;9750;48.730;10.294;2023-04-08T00:30:13;15.53;;;13.83;;
19231;SDS011;9750;48.730;10.294;2023-04-08T00:32:41;19.00;;;14.77;;
19231;SDS011;9750;48.730;10.294;2023-04-08T00:35:08;14.93;;;13.43;;
19231;SDS011;9750;48.730;10.294;2023-04-08T00:37:37;18.17;;;15.40;;
19231;SDS011;9750;48.730;10.294;2023-04-08T00:40:05;15.37;;;13.87;;
19231;SDS011;9750;48.730;10.294;2023-04-08T00:42:33;19.60;;;16.03;;
19231;SDS011;9750;48.730;10.294;2023-04-08T00:45:02;18.10;;;14.77;;
19231;SDS011;9750;48.730;10.294;2023-04-08T00:47:30;18.30;;;15.40;;
19231;SDS011;9750;48.730;10.294;2023-04-08T00:49:57;15.53;;;13.77;;
19231;SDS011;9750;48.730;10.294;2023-04-08T00:52:25;18.07;;;14.30;;
19231;SDS011;9750;48.730;10.294;2023-04-08T00:54:52;14.43;;;12.90;;
19231;SDS011;9750;48.730;10.294;2023-04-08T00:57:28;16.87;;;13.60;;
19231;SDS011;9750;48.730;10.294;2023-04-08T00:59:55;13.97;;;12.47;;
19231;SDS011;9750;48.730;10.294;2023-04-08T01:02:25;15.93;;;12.60;;
19231;SDS011;9750;48.730;10.294;2023-04-08T01:05:04;13.13;;;11.80;;
19231;SDS011;9750;48.730;10.294;2023-04-08T01:07:34;15.60;;;13.73;;
19231;SDS011;9750;48.730;10.294;2023-04-08T01:10:05;14.77;;;13.07;;
19231;SDS011;9750;48.730;10.294;2023-04-08T01:12:39;16.67;;;13.90;;
19231;SDS011;9750;48.730;10.294;2023-04-08T01:15:10;14.57;;;13.07;;
19231;SDS011;9750;48.730;10.294;2023-04-08T01:17:46;18.23;;;14.23;;
19231;SDS011;9750;48.730;10.294;2023-04-08T01:20:15;15.63;;;13.87;;
19231;SDS011;9750;48.730;10.294;2023-04-08T01:22:47;16.47;;;13.80;;
19231;SDS011;9750;48.730;10.294;2023-04-08T01:25:29;15.37;;;13.80;;
19231;SDS011;9750;48.730;10.294;2023-04-08T01:27:59;19.40;;;15.73;;
19231;SDS011;9750;48.730;10.294;2023-04-08T01:30:30;18.47;;;16.47;;
19231;SDS011;9750;48.730;10.294;2023-04-08T01:32:59;15.80;;;13.90;;
19231;SDS011;9750;48.730;10.294;2023-04-08T01:35:29;18.87;;;15.97;;
19231;SDS011;9750;48.730;10.294;2023-04-08T01:38:06;15.27;;;13.77;;
19231;SDS011;9750;48.730;10.294;2023-04-08T01:40:34;19.17;;;15.70;;
19231;SDS011;9750;48.730;10.294;2023-04-08T01:43:07;14.90;;;13.33;;
19231;SDS011;9750;48.730;10.294;2023-04-08T01:45:35;17.30;;;15.50;;
19231;SDS011;9750;48.730;10.294;2023-04-08T01:48:03;14.87;;;13.27;;
19231;SDS011;9750;48.730;10.294;2023-04-08T01:50:32;20.20;;;16.67;;
19231;SDS011;9750;48.730;10.294;2023-04-08T01:53:01;14.50;;;13.00;;
19231;SDS011;9750;48.730;10.294;2023-04-08T01:55:29;16.87;;;14.63;;
19231;SDS011;9750;48.730;10.294;2023-04-08T01:57:58;15.37;;;13.57;;
19231;SDS011;9750;48.730;10.294;2023-04-08T02:00:28;18.97;;;16.50;;
19231;SDS011;9750;48.730;10.294;2023-04-08T02:02:57;17.40;;;14.87;;
19231;SDS011;9750;48.730;10.294;2023-04-08T02:05:26;18.83;;;15.53;;
19231;SDS011;9750;48.730;10.294;2023-04-08T02:07:54;15.87;;;13.67;;
19231;SDS011;9750;48.730;10.294;2023-04-08T02:10:21;19.73;;;16.00;;
19231;SDS011;9750;48.730;10.294;2023-04-08T02:12:48;17.67;;;14.37;;
19231;SDS011;9750;48.730;10.294;2023-04-08T02:15:16;20.87;;;15.33;;
19231;SDS011;9750;48.730;10.294;2023-04-08T02:17:45;16.30;;;14.60;;
19231;SDS011;9750;48.730;10.294;2023-04-08T02:20:17;21.03;;;16.53;;
19231;SDS011;9750;48.730;10.294;2023-04-08T02:22:48;20.70;;;15.47;;
19231;SDS011;9750;48.730;10.294;2023-04-08T02:25:23;19.60;;;15.70;;
19231;SDS011;9750;48.730;10.294;2023-04-08T02:30:46;23.00;;;17.63;;
19231;SDS011;9750;48.730;10.294;2023-04-08T02:33:17;18.93;;;15.60;;
19231;SDS011;9750;48.730;10.294;2023-04-08T02:35:46;20.77;;;17.80;;
19231;SDS011;9750;48.730;10.294;2023-04-08T02:38:16;17.20;;;15.30;;
19231;SDS011;9750;48.730;10.294;2023-04-08T02:40:43;21.30;;;17.17;;
19231;SDS011;9750;48.730;10.294;2023-04-08T02:43:11;19.30;;;15.17;;
19231;SDS011;9750;48.730;10.294;2023-04-08T02:45:39;26.20;;;18.50;;
19231;SDS011;9750;48.730;10.294;2023-04-08T02:48:08;18.77;;;16.63;;
19231;SDS011;9750;48.730;10.294;2023-04-08T02:50:37;22.17;;;18.70;;
19231;SDS011;9750;48.730;10.294;2023-04-08T02:53:04;19.27;;;16.33;;
19231;SDS011;9750;48.730;10.294;2023-04-08T02:55:32;26.27;;;19.67;;
19231;SDS011;9750;48.730;10.294;2023-04-08T02:57:59;19.47;;;17.23;;
19231;SDS011;9750;48.730;10.294;2023-04-08T03:00:26;24.33;;;18.80;;
19231;SDS011;9750;48.730;10.294;2023-04-08T03:02:54;20.93;;;18.63;;
19231;SDS011;9750;48.730;10.294;2023-04-08T03:05:21;25.93;;;20.87;;
19231;SDS011;9750;48.730;10.294;2023-04-08T03:07:50;18.97;;;17.00;;
19231;SDS011;9750;48.730;10.294;2023-04-08T03:10:17;25.10;;;20.90;;
19231;SDS011;9750;48.730;10.294;2023-04-08T03:12:44;19.63;;;17.40;;
19231;SDS011;9750;48.730;10.294;2023-04-08T03:15:12;25.70;;;19.77;;
19231;SDS011;9750;48.730;10.294;2023-04-08T03:17:39;20.33;;;17.37;;
19231;SDS011;9750;48.730;10.294;2023-04-08T03:20:06;26.60;;;20.30;;
19231;SDS011;9750;48.730;10.294;2023-04-08T03:22:34;20.43;;;17.67;;
19231;SDS011;9750;48.730;10.294;2023-04-08T03:25:04;23.83;;;19.33;;
19231;SDS011;9750;48.730;10.294;2023-04-08T03:27:32;21.60;;;18.37;;
19231;SDS011;9750;48.730;10.294;2023-04-08T03:29:59;27.50;;;21.43;;
19231;SDS011;9750;48.730;10.294;2023-04-08T03:32:26;19.60;;;17.30;;
19231;SDS011;9750;48.730;10.294;2023-04-08T03:34:53;26.37;;;18.80;;
19231;SDS011;9750;48.730;10.294;2023-04-08T03:37:21;20.27;;;17.60;;
19231;SDS011;9750;48.730;10.294;2023-04-08T03:39:48;25.20;;;19.60;;
19231;SDS011;9750;48.730;10.294;2023-04-08T03:42:17;20.70;;;17.60;;
19231;SDS011;9750;48.730;10.294;2023-04-08T03:44:44;23.00;;;19.23;;
19231;SDS011;9750;48.730;10.294;2023-04-08T03:47:11;22.07;;;18.30;;
19231;SDS011;9750;48.730;10.294;2023-04-08T03:49:38;20.73;;;16.83;;
19231;SDS011;9750;48.730;10.294;2023-04-08T03:52:06;17.87;;;14.77;;
19231;SDS011;9750;48.730;10.294;2023-04-08T03:54:33;19.03;;;16.03;;
19231;SDS011;9750;48.730;10.294;2023-04-08T03:57:00;17.50;;;15.63;;
19231;SDS011;9750;48.730;10.294;2023-04-08T03:59:29;23.43;;;19.00;;
19231;SDS011;9750;48.730;10.294;2023-04-08T04:01:58;20.97;;;17.90;;
19231;SDS011;9750;48.730;10.294;2023-04-08T04:04:25;20.80;;;16.13;;
19231;SDS011;9750;48.730;10.294;2023-04-08T04:06:52;18.57;;;15.90;;
19231;SDS011;9750;48.730;10.294;2023-04-08T04:09:20;25.87;;;19.30;;
19231;SDS011;9750;48.730;10.294;2023-04-08T04:11:47;19.40;;;17.30;;
19231;SDS011;9750;48.730;10.294;2023-04-08T04:14:14;24.17;;;19.43;;
19231;SDS011;9750;48.730;10.294;2023-04-08T04:16:43;21.77;;;18.37;;
19231;SDS011;9750;48.730;10.294;2023-04-08T04:19:10;26.13;;;19.67;;
19231;SDS011;9750;48.730;10.294;2023-04-08T04:21:38;20.47;;;16.80;;
19231;SDS011;9750;48.730;10.294;2023-04-08T04:24:05;27.17;;;20.17;;
19231;SDS011;9750;48.730;10.294;2023-04-08T04:26:32;27.17;;;19.90;;
19231;SDS011;9750;48.730;10.294;2023-04-08T04:28:59;23.33;;;19.27;;
19231;SDS011;9750;48.730;10.294;2023-04-08T04:31:27;20.53;;;18.27;;
19231;SDS011;9750;48.730;10.294;2023-04-08T04:33:56;29.67;;;22.60;;
19231;SDS011;9750;48.730;10.294;2023-04-08T04:36:23;30.57;;;22.17;;
19231;SDS011;9750;48.730;10.294;2023-04-08T04:38:51;32.43;;;23.80;;
19231;SDS011;9750;48.730;10.294;2023-04-08T04:41:18;26.90;;;22.17;;
19231;SDS011;9750;48.730;10.294;2023-04-08T04:43:46;30.17;;;22.63;;
19231;SDS011;9750;48.730;10.294;2023-04-08T04:46:13;26.53;;;22.40;;
19231;SDS011;9750;48.730;10.294;2023-04-08T04:48:41;31.63;;;23.60;;
19231;SDS011;9750;48.730;10.294;2023-04-08T04:51:09;26.03;;;20.57;;
19231;SDS011;9750;48.730;10.294;2023-04-08T04:53:37;31.77;;;23.80;;
19231;SDS011;9750;48.730;10.294;2023-04-08T04:56:04;25.43;;;21.27;;
19231;SDS011;9750;48.730;10.294;2023-04-08T04:58:31;32.83;;;23.83;;
19231;SDS011;9750;48.730;10.294;2023-04-08T05:00:59;30.83;;;23.17;;
19231;SDS011;9750;48.730;10.294;2023-04-08T05:03:26;29.60;;;22.17;;
19231;SDS011;9750;48.730;10.294;2023-04-08T05:05:53;30.57;;;22.20;;
19231;SDS011;9750;48.730;10.294;2023-04-08T05:11:19;30.60;;;23.80;;
19231;SDS011;9750;48.730;10.294;2023-04-08T05:13:47;25.30;;;20.90;;
19231;SDS011;9750;48.730;10.294;2023-04-08T05:16:14;26.90;;;21.93;;
19231;SDS011;9750;48.730;10.294;2023-04-08T05:18:41;24.07;;;21.23;;
19231;SDS011;9750;48.730;10.294;2023-04-08T05:21:09;27.70;;;22.03;;
19231;SDS011;9750;48.730;10.294;2023-04-08T05:23:36;25.07;;;20.87;;
19231;SDS011;9750;48.730;10.294;2023-04-08T05:26:07;31.10;;;23.77;;
19231;SDS011;9750;48.730;10.294;2023-04-08T05:28:34;32.40;;;24.03;;
19231;SDS011;9750;48.730;10.294;2023-04-08T05:31:02;25.33;;;21.17;;
19231;SDS011;9750;48.730;10.294;2023-04-08T05:33:29;29.70;;;22.73;;
19231;SDS011;9750;48.730;10.294;2023-04-08T05:35:56;24.37;;;20.40;;
19231;SDS011;9750;48.730;10.294;2023-04-08T05:38:36;29.97;;;22.60;;
19231;SDS011;9750;48.730;10.294;2023-04-08T05:41:04;26.90;;;21.03;;
19231;SDS011;9750;48.730;10.294;2023-04-08T05:43:33;22.30;;;19.97;;
19231;SDS011;9750;48.730;10.294;2023-04-08T05:46:04;27.93;;;22.10;;
19231;SDS011;9750;48.730;10.294;2023-04-08T05:48:32;32.47;;;23.37;;
19231;SDS011;9750;48.730;10.294;2023-04-08T05:50:59;28.70;;;23.00;;
19231;SDS011;9750;48.730;10.294;2023-04-08T05:53:27;31.03;;;24.37;;
19231;SDS011;9750;48.730;10.294;2023-04-08T05:55:54;24.47;;;21.33;;
19231;SDS011;9750;48.730;10.294;2023-04-08T05:58:21;29.73;;;22.70;;
19231;SDS011;9750;48.730;10.294;2023-04-08T06:00:50;32.47;;;24.40;;
19231;SDS011;9750;48.730;10.294;2023-04-08T06:03:19;27.57;;;21.67;;
19231;SDS011;9750;48.730;10.294;2023-04-08T06:05:46;45.23;;;32.93;;
19231;SDS011;9750;48.730;10.294;2023-04-08T06:10:51;25.47;;;20.67;;
19231;SDS011;9750;48.730;10.294;2023-04-08T06:13:18;20.80;;;18.70;;
19231;SDS011;9750;48.730;10.294;2023-04-08T06:15:46;22.43;;;18.93;;
19231;SDS011;9750;48.730;10.294;2023-04-08T06:18:15;23.33;;;19.27;;
19231;SDS011;9750;48.730;10.294;2023-04-08T06:20:43;19.63;;;17.63;;
19231;SDS011;9750;48.730;10.294;2023-04-08T06:23:10;27.47;;;22.63;;
19231;SDS011;9750;48.730;10.294;2023-04-08T06:25:40;23.40;;;18.17;;
19231;SDS011;9750;48.730;10.294;2023-04-08T06:28:07;20.03;;;18.03;;
19231;SDS011;9750;48.730;10.294;2023-04-08T06:30:34;23.97;;;19.43;;
19231;SDS011;9750;48.730;10.294;2023-04-08T06:33:01;20.40;;;18.23;;
19231;SDS011;9750;48.730;10.294;2023-04-08T06:35:30;25.87;;;19.93;;
19231;SDS011;9750;48.730;10.294;2023-04-08T06:37:57;20.23;;;18.13;;
19231;SDS011;9750;48.730;10.294;2023-04-08T06:40:25;22.17;;;19.10;;
19231;SDS011;9750;48.730;10.294;2023-04-08T06:42:52;23.03;;;19.07;;
19231;SDS011;9750;48.730;10.294;2023-04-08T06:45:19;21.37;;;19.07;;
19231;SDS011;9750;48.730;10.294;2023-04-08T06:47:47;23.60;;;19.80;;
19231;SDS011;9750;48.730;10.294;2023-04-08T06:50:15;24.77;;;20.07;;
19231;SDS011;9750;48.730;10.294;2023-04-08T06:52:44;23.70;;;20.70;;
19231;SDS011;9750;48.730;10.294;2023-04-08T06:55:11;19.90;;;17.80;;
19231;SDS011;9750;48.730;10.294;2023-04-08T06:57:38;22.90;;;20.07;;
19231;SDS011;9750;48.730;10.294;2023-04-08T07:00:06;21.97;;;19.27;;
19231;SDS011;9750;48.730;10.294;2023-04-08T07:02:34;20.50;;;18.43;;
19231;SDS011;9750;48.730;10.294;2023-04-08T07:05:01;23.20;;;18.97;;
19231;SDS011;9750;48.730;10.294;2023-04-08T07:07:29;20.77;;;18.67;;
19231;SDS011;9750;48.730;10.294;2023-04-08T07:09:58;21.53;;;19.23;;
19231;SDS011;9750;48.730;10.294;2023-04-08T07:12:25;23.43;;;20.47;;
19231;SDS011;9750;48.730;10.294;2023-04-08T07:14:52;22.17;;;19.70;;
19231;SDS011;9750;48.730;10.294;2023-04-08T07:17:19;21.40;;;18.80;;
19231;SDS011;9750;48.730;10.294;2023-04-08T07:19:47;21.53;;;19.23;;
19231;SDS011;9750;48.730;10.294;2023-04-08T07:22:33;28.50;;;23.13;;
19231;SDS011;9750;48.730;10.294;2023-04-08T07:25:01;21.80;;;19.53;;
19231;SDS011;9750;48.730;10.294;2023-04-08T07:27:29;20.90;;;18.63;;
19231;SDS011;9750;48.730;10.294;2023-04-08T07:29:57;21.70;;;19.40;;
19231;SDS011;9750;48.730;10.294;2023-04-08T07:32:24;20.67;;;18.53;;
19231;SDS011;9750;48.730;10.294;2023-04-08T07:34:51;22.63;;;17.93;;
19231;SDS011;9750;48.730;10.294;2023-04-08T07:37:18;22.10;;;18.30;;
19231;SDS011;9750;48.730;10.294;2023-04-08T07:39:46;21.97;;;18.57;;
19231;SDS011;9750;48.730;10.294;2023-04-08T07:42:15;20.87;;;18.60;;
19231;SDS011;9750;48.730;10.294;2023-04-08T07:44:42;18.63;;;16.63;;
19231;SDS011;9750;48.730;10.294;2023-04-08T07:47:10;19.60;;;17.53;;
19231;SDS011;9750;48.730;10.294;2023-04-08T07:49:38;21.60;;;17.77;;
19231;SDS011;9750;48.730;10.294;2023-04-08T07:52:06;17.53;;;15.80;;
19231;SDS011;9750;48.730;10.294;2023-04-08T07:54:33;18.53;;;16.53;;
19231;SDS011;9750;48.730;10.294;2023-04-08T07:57:00;19.13;;;17.13;;
19231;SDS011;9750;48.730;10.294;2023-04-08T07:59:30;18.23;;;16.13;;
19231;SDS011;9750;48.730;10.294;2023-04-08T08:01:57;19.07;;;17.03;;
19231;SDS011;9750;48.730;10.294;2023-04-08T08:04:25;18.27;;;15.83;;
19231;SDS011;9750;48.730;10.294;2023-04-08T08:06:52;17.80;;;15.70;;
19231;SDS011;9750;48.730;10.294;2023-04-08T08:09:19;17.50;;;15.60;;
19231;SDS011;9750;48.730;10.294;2023-04-08T08:11:47;17.30;;;15.50;;
19231;SDS011;9750;48.730;10.294;2023-04-08T08:14:14;17.30;;;15.47;;
19231;SDS011;9750;48.730;10.294;2023-04-08T08:16:43;20.17;;;15.77;;
19231;SDS011;9750;48.730;10.294;2023-04-08T08:19:10;16.43;;;14.57;;
19231;SDS011;9750;48.730;10.294;2023-04-08T08:21:38;17.97;;;14.13;;
19231;SDS011;9750;48.730;10.294;2023-04-08T08:24:05;16.10;;;14.23;;
19231;SDS011;9750;48.730;10.294;2023-04-08T08:26:33;15.57;;;13.97;;
19231;SDS011;9750;48.730;10.294;2023-04-08T08:29:02;15.07;;;13.57;;
19231;SDS011;9750;48.730;10.294;2023-04-08T08:31:29;16.73;;;14.00;;
19231;SDS011;9750;48.730;10.294;2023-04-08T08:33:58;16.67;;;14.40;;
19231;SDS011;9750;48.730;10.294;2023-04-08T08:36:25;15.73;;;13.97;;
19231;SDS011;9750;48.730;10.294;2023-04-08T08:38:52;16.20;;;14.47;;
19231;SDS011;9750;48.730;10.294;2023-04-08T08:41:20;16.70;;;15.00;;
19231;SDS011;9750;48.730;10.294;2023-04-08T08:43:47;19.37;;;15.33;;
19231;SDS011;9750;48.730;10.294;2023-04-08T08:46:15;17.43;;;15.53;;
19231;SDS011;9750;48.730;10.294;2023-04-08T08:48:43;16.73;;;14.90;;
19231;SDS011;9750;48.730;10.294;2023-04-08T08:51:12;16.37;;;14.60;;
19231;SDS011;9750;48.730;10.294;2023-04-08T08:53:40;14.83;;;13.33;;
19231;SDS011;9750;48.730;10.294;2023-04-08T08:56:09;16.30;;;14.60;;
19231;SDS011;9750;48.730;10.294;2023-04-08T08:58:37;15.60;;;13.97;;
19231;SDS011;9750;48.730;10.294;2023-04-08T09:04:05;16.07;;;14.07;;
19231;SDS011;9750;48.730;10.294;2023-04-08T09:06:35;15.23;;;13.00;;
19231;SDS011;9750;48.730;10.294;2023-04-08T09:09:03;14.47;;;12.97;;
19231;SDS011;9750;48.730;10.294;2023-04-08T09:11:34;14.63;;;13.07;;
19231;SDS011;9750;48.730;10.294;2023-04-08T09:14:39;15.03;;;13.43;;
19231;SDS011;9750;48.730;10.294;2023-04-08T09:17:51;15.20;;;13.60;;
19231;SDS011;9750;48.730;10.294;2023-04-08T09:20:18;13.83;;;12.43;;
19231;SDS011;9750;48.730;10.294;2023-04-08T09:22:57;15.57;;;13.90;;
19231;SDS011;9750;48.730;10.294;2023-04-08T09:25:25;14.27;;;12.83;;
19231;SDS011;9750;48.730;10.294;2023-04-08T09:27:54;14.27;;;12.77;;
19231;SDS011;9750;48.730;10.294;2023-04-08T09:30:22;14.40;;;12.90;;
19231;SDS011;9750;48.730;10.294;2023-04-08T09:32:51;15.33;;;12.53;;
19231;SDS011;9750;48.730;10.294;2023-04-08T09:35:20;16.50;;;13.17;;
19231;SDS011;9750;48.730;10.294;2023-04-08T09:37:49;15.17;;;13.07;;
19231;SDS011;9750;48.730;10.294;2023-04-08T09:40:18;14.37;;;12.87;;
19231;SDS011;9750;48.730;10.294;2023-04-08T09:42:47;15.70;;;12.97;;
19231;SDS011;9750;48.730;10.294;2023-04-08T09:45:18;13.90;;;12.50;;
19231;SDS011;9750;48.730;10.294;2023-04-08T09:47:51;15.80;;;12.80;;
19231;SDS011;9750;48.730;10.294;2023-04-08T09:50:23;14.63;;;12.00;;
19231;SDS011;9750;48.730;10.294;2023-04-08T09:52:59;12.87;;;11.33;;
19231;SDS011;9750;48.730;10.294;2023-04-08T09:55:31;13.57;;;11.70;;
19231;SDS011;9750;48.730;10.294;2023-04-08T10:01:31;12.80;;;11.50;;
19231;SDS011;9750;48.730;10.294;2023-04-08T10:04:04;13.67;;;12.27;;
19231;SDS011;9750;48.730;10.294;2023-04-08T10:06:33;12.93;;;11.63;;
19231;SDS011;9750;48.730;10.294;2023-04-08T10:09:02;13.30;;;11.30;;
19231;SDS011;9750;48.730;10.294;2023-04-08T10:11:31;12.97;;;11.57;;
19231;SDS011;9750;48.730;10.294;2023-04-08T10:14:00;13.40;;;12.00;;
19231;SDS011;9750;48.730;10.294;2023-04-08T10:16:28;15.03;;;12.20;;
19231;SDS011;9750;48.730;10.294;2023-04-08T10:18:55;14.47;;;12.97;;
19231;SDS011;9750;48.730;10.294;2023-04-08T10:21:38;17.20;;;12.70;;
19231;SDS011;9750;48.730;10.294;2023-04-08T10:27:07;15.90;;;12.47;;
19231;SDS011;9750;48.730;10.294;2023-04-08T10:30:11;14.23;;;12.03;;
19231;SDS011;9750;48.730;10.294;2023-04-08T10:33:41;14.27;;;12.30;;
19231;SDS011;9750;48.730;10.294;2023-04-08T10:36:09;14.30;;;12.90;;
19231;SDS011;9750;48.730;10.294;2023-04-08T10:38:39;14.83;;;13.33;;
19231;SDS011;9750;48.730;10.294;2023-04-08T10:41:09;14.40;;;12.03;;
19231;SDS011;9750;48.730;10.294;2023-04-08T10:43:47;16.07;;;13.20;;
19231;SDS011;9750;48.730;10.294;2023-04-08T10:46:14;16.57;;;13.57;;
19231;SDS011;9750;48.730;10.294;2023-04-08T10:48:42;13.83;;;12.30;;
19231;SDS011;9750;48.730;10.294;2023-04-08T10:51:09;15.60;;;12.30;;
19231;SDS011;9750;48.730;10.294;2023-04-08T10:53:37;14.43;;;11.80;;
19231;SDS011;9750;48.730;10.294;2023-04-08T10:56:05;15.17;;;12.13;;
19231;SDS011;9750;48.730;10.294;2023-04-08T10:58:33;13.33;;;11.93;;
19231;SDS011;9750;48.730;10.294;2023-04-08T11:01:03;13.33;;;11.53;;
19231;SDS011;9750;48.730;10.294;2023-04-08T11:03:32;15.13;;;12.00;;
19231;SDS011;9750;48.730;10.294;2023-04-08T11:06:03;12.13;;;10.93;;
19231;SDS011;9750;48.730;10.294;2023-04-08T11:08:33;12.13;;;10.93;;
19231;SDS011;9750;48.730;10.294;2023-04-08T11:11:04;13.00;;;10.67;;
19231;SDS011;9750;48.730;10.294;2023-04-08T11:13:33;11.77;;;9.73;;
19231;SDS011;9750;48.730;10.294;2023-04-08T11:16:02;12.23;;;10.93;;
19231;SDS011;9750;48.730;10.294;2023-04-08T11:18:33;11.70;;;10.37;;
19231;SDS011;9750;48.730;10.294;2023-04-08T11:21:00;10.73;;;9.63;;
19231;SDS011;9750;48.730;10.294;2023-04-08T11:23:28;11.47;;;10.37;;
19231;SDS011;9750;48.730;10.294;2023-04-08T11:25:55;10.67;;;9.43;;
19231;SDS011;9750;48.730;10.294;2023-04-08T11:28:22;11.93;;;10.07;;
19231;SDS011;9750;48.730;10.294;2023-04-08T11:30:51;16.67;;;12.90;;
19231;SDS011;9750;48.730;10.294;2023-04-08T11:33:21;12.73;;;9.73;;
19231;SDS011;9750;48.730;10.294;2023-04-08T11:35:51;10.70;;;9.40;;
19231;SDS011;9750;48.730;10.294;2023-04-08T11:38:20;10.67;;;9.20;;
19231;SDS011;9750;48.730;10.294;2023-04-08T11:40:51;11.87;;;9.50;;
19231;SDS011;9750;48.730;10.294;2023-04-08T11:43:19;10.67;;;9.57;;
19231;SDS011;9750;48.730;10.294;2023-04-08T11:45:47;12.23;;;10.10;;
19231;SDS011;9750;48.730;10.294;2023-04-08T11:54:27;9.87;;;8.93;;
19231;SDS011;9750;48.730;10.294;2023-04-08T11:56:57;10.53;;;9.00;;
19231;SDS011;9750;48.730;10.294;2023-04-08T11:59:29;9.57;;;8.67;;
19231;SDS011;9750;48.730;10.294;2023-04-08T12:01:57;9.53;;;8.53;;
19231;SDS011;9750;48.730;10.294;2023-04-08T12:04:24;9.30;;;8.23;;
19231;SDS011;9750;48.730;10.294;2023-04-08T12:13:37;10.07;;;8.77;;
19231;SDS011;9750;48.730;10.294;2023-04-08T12:16:04;8.10;;;7.40;;
19231;SDS011;9750;48.730;10.294;2023-04-08T12:18:32;10.13;;;8.97;;
19231;SDS011;9750;48.730;10.294;2023-04-08T12:20:59;10.57;;;8.43;;
19231;SDS011;9750;48.730;10.294;2023-04-08T12:23:27;10.40;;;8.30;;
19231;SDS011;9750;48.730;10.294;2023-04-08T12:25:54;10.13;;;9.13;;
19231;SDS011;9750;48.730;10.294;2023-04-08T12:28:22;9.47;;;8.47;;
19231;SDS011;9750;48.730;10.294;2023-04-08T12:30:51;9.50;;;8.60;;
19231;SDS011;9750;48.730;10.294;2023-04-08T12:33:18;11.00;;;9.80;;
19231;SDS011;9750;48.730;10.294;2023-04-08T12:35:45;10.17;;;9.23;;
19231;SDS011;9750;48.730;10.294;2023-04-08T12:38:12;10.80;;;9.40;;
19231;SDS011;9750;48.730;10.294;2023-04-08T12:43:15;9.67;;;8.77;;
19231;SDS011;9750;48.730;10.294;2023-04-08T12:45:45;9.83;;;8.83;;
19231;SDS011;9750;48.730;10.294;2023-04-08T12:48:14;11.17;;;9.10;;
19231;SDS011;9750;48.730;10.294;2023-04-08T12:50:46;10.60;;;9.50;;
19231;SDS011;9750;48.730;10.294;2023-04-08T12:53:14;10.67;;;9.30;;
19231;SDS011;9750;48.730;10.294;2023-04-08T12:55:42;10.17;;;9.17;;
19231;SDS011;9750;48.730;10.294;2023-04-08T12:58:12;10.30;;;9.30;;
19231;SDS011;9750;48.730;10.294;2023-04-08T13:00:42;12.40;;;9.47;;
19231;SDS011;9750;48.730;10.294;2023-04-08T13:03:15;10.87;;;9.77;;
19231;SDS011;9750;48.730;10.294;2023-04-08T13:05:42;10.30;;;9.17;;
19231;SDS011;9750;48.730;10.294;2023-04-08T13:08:14;13.13;;;10.60;;
19231;SDS011;9750;48.730;10.294;2023-04-08T13:10:41;13.23;;;10.70;;
19231;SDS011;9750;48.730;10.294;2023-04-08T13:13:12;11.83;;;10.73;;
19231;SDS011;9750;48.730;10.294;2023-04-08T13:15:45;11.30;;;10.20;;
19231;SDS011;9750;48.730;10.294;2023-04-08T13:18:12;10.43;;;9.43;;
19231;SDS011;9750;48.730;10.294;2023-04-08T13:20:43;10.73;;;9.63;;
19231;SDS011;9750;48.730;10.294;2023-04-08T13:23:13;10.50;;;9.33;;
19231;SDS011;9750;48.730;10.294;2023-04-08T13:25:42;10.83;;;9.37;;
19231;SDS011;9750;48.730;10.294;2023-04-08T13:28:14;11.87;;;9.97;;
19231;SDS011;9750;48.730;10.294;2023-04-08T13:30:42;10.87;;;9.77;;
19231;SDS011;9750;48.730;10.294;2023-04-08T13:33:15;12.27;;;10.83;;
19231;SDS011;9750;48.730;10.294;2023-04-08T13:35:48;12.13;;;10.60;;
19231;SDS011;9750;48.730;10.294;2023-04-08T13:38:18;11.83;;;10.50;;
19231;SDS011;9750;48.730;10.294;2023-04-08T13:40:45;11.10;;;10.10;;
19231;SDS011;9750;48.730;10.294;2023-04-08T13:43:13;11.13;;;10.07;;
19231;SDS011;9750;48.730;10.294;2023-04-08T13:45:40;11.20;;;9.77;;
19231;SDS011;9750;48.730;10.294;2023-04-08T13:48:07;11.83;;;10.63;;
19231;SDS011;9750;48.730;10.294;2023-04-08T13:50:35;12.27;;;10.53;;
19231;SDS011;9750;48.730;10.294;2023-04-08T13:53:04;13.83;;;12.53;;
19231;SDS011;9750;48.730;10.294;2023-04-08T13:55:31;13.30;;;11.90;;
19231;SDS011;9750;48.730;10.294;2023-04-08T13:57:59;14.40;;;13.00;;
19231;SDS011;9750;48.730;10.294;2023-04-08T14:00:26;11.87;;;10.77;;
19231;SDS011;9750;48.730;10.294;2023-04-08T14:02:53;16.27;;;14.67;;
19231;SDS011;9750;48.730;10.294;2023-04-08T14:05:20;15.43;;;13.87;;
19231;SDS011;9750;48.730;10.294;2023-04-08T14:07:50;12.50;;;11.27;;
19231;SDS011;9750;48.730;10.294;2023-04-08T14:10:18;14.10;;;12.60;;
19231;SDS011;9750;48.730;10.294;2023-04-08T14:12:46;15.63;;;14.13;;
19231;SDS011;9750;48.730;10.294;2023-04-08T14:15:15;13.47;;;12.20;;
19231;SDS011;9750;48.730;10.294;2023-04-08T14:30:08;12.10;;;10.93;;
19231;SDS011;9750;48.730;10.294;2023-04-08T14:32:35;11.23;;;10.13;;
19231;SDS011;9750;48.730;10.294;2023-04-08T14:35:03;12.20;;;11.00;;
19231;SDS011;9750;48.730;10.294;2023-04-08T14:37:30;12.77;;;11.40;;
19231;SDS011;9750;48.730;10.294;2023-04-08T14:39:58;9.87;;;9.00;;
19231;SDS011;9750;48.730;10.294;2023-04-08T15:12:48;10.00;;;9.10;;
19231;SDS011;9750;48.730;10.294;2023-04-08T15:15:16;13.43;;;12.07;;
19231;SDS011;9750;48.730;10.294;2023-04-08T15:17:43;10.87;;;9.87;;
19231;SDS011;9750;48.730;10.294;2023-04-08T15:20:10;10.73;;;9.73;;
19231;SDS011;9750;48.730;10.294;2023-04-08T15:22:38;10.83;;;9.73;;
19231;SDS011;9750;48.730;10.294;2023-04-08T15:25:06;9.73;;;8.90;;
19231;SDS011;9750;48.730;10.294;2023-04-08T15:27:34;10.40;;;9.33;;
19231;SDS011;9750;48.730;10.294;2023-04-08T15:30:03;9.87;;;9.00;;
19231;SDS011;9750;48.730;10.294;2023-04-08T15:32:32;10.33;;;9.33;;
19231;SDS011;9750;48.730;10.294;2023-04-08T15:35:00;13.33;;;11.93;;
19231;SDS011;9750;48.730;10.294;2023-04-08T15:37:33;10.43;;;9.43;;
19231;SDS011;9750;48.730;10.294;2023-04-08T15:40:01;15.90;;;12.17;;
19231;SDS011;9750;48.730;10.294;2023-04-08T15:42:28;18.10;;;13.33;;
19231;SDS011;9750;48.730;10.294;2023-04-08T15:44:55;14.17;;;11.53;;
19231;SDS011;9750;48.730;10.294;2023-04-08T15:50:13;11.90;;;10.70;;
19231;SDS011;9750;48.730;10.294;2023-04-08T15:52:41;11.40;;;10.20;;
19231;SDS011;9750;48.730;10.294;2023-04-08T15:55:09;12.23;;;10.93;;